sensor_id;sensor_type;location;lat;lon;timestamp;P1;durP1;ratioP1;P2;durP2;ratioP2
66112;SDS011;52893;52.870;5.822;2023-03-14T00:00:54;6.35;;;1.85;;
66112;SDS011;52893;52.870;5.822;2023-03-14T00:03:21;13.60;;;2.00;;
66112;SDS011;52893;52.870;5.822;2023-03-14T00:05:48;14.07;;;1.55;;
66112;SDS011;52893;52.870;5.822;2023-03-14T00:08:16;9.73;;;1.80;;
66112;SDS011;52893;52.870;5.822;2023-03-14T00:10:44;17.63;;;2.38;;
66112;SDS011;52893;52.870;5.822;2023-03-14T00:13:12;14.18;;;1.92;;
66112;SDS011;52893;52.870;5.822;2023-03-14T00:15:39;12.63;;;1.88;;
66112;SDS011;52893;52.870;5.822;2023-03-14T00:18:06;6.63;;;1.30;;
66112;SDS011;52893;52.870;5.822;2023-03-14T00:20:33;9.70;;;1.85;;
66112;SDS011;52893;52.870;5.822;2023-03-14T00:23:00;11.27;;;1.58;;
66112;SDS011;52893;52.870;5.822;2023-03-14T00:25:28;11.60;;;2.45;;
66112;SDS011;52893;52.870;5.822;2023-03-14T00:27:57;16.08;;;2.55;;
66112;SDS011;52893;52.870;5.822;2023-03-14T00:30:24;12.27;;;2.42;;
66112;SDS011;52893;52.870;5.822;2023-03-14T00:32:51;7.10;;;2.28;;
66112;SDS011;52893;52.870;5.822;2023-03-14T00:35:20;10.07;;;1.70;;
66112;SDS011;52893;52.870;5.822;2023-03-14T00:37:47;12.80;;;2.17;;
66112;SDS011;52893;52.870;5.822;2023-03-14T00:40:14;5.13;;;2.10;;
66112;SDS011;52893;52.870;5.822;2023-03-14T00:42:42;12.32;;;1.83;;
66112;SDS011;52893;52.870;5.822;2023-03-14T00:45:11;11.23;;;1.88;;
66112;SDS011;52893;52.870;5.822;2023-03-14T00:47:38;16.45;;;2.38;;
66112;SDS011;52893;52.870;5.822;2023-03-14T00:50:08;8.07;;;1.23;;
66112;SDS011;52893;52.870;5.822;2023-03-14T00:52:38;8.80;;;1.25;;
66112;SDS011;52893;52.870;5.822;2023-03-14T00:55:06;10.10;;;2.22;;
66112;SDS011;52893;52.870;5.822;2023-03-14T00:57:33;6.25;;;1.30;;
66112;SDS011;52893;52.870;5.822;2023-03-14T01:00:01;6.97;;;1.75;;
66112;SDS011;52893;52.870;5.822;2023-03-14T01:02:31;8.13;;;1.60;;
66112;SDS011;52893;52.870;5.822;2023-03-14T01:04:59;7.97;;;1.58;;
66112;SDS011;52893;52.870;5.822;2023-03-14T01:07:27;12.45;;;1.30;;
66112;SDS011;52893;52.870;5.822;2023-03-14T01:09:54;7.88;;;2.00;;
66112;SDS011;52893;52.870;5.822;2023-03-14T01:12:21;8.75;;;1.23;;
66112;SDS011;52893;52.870;5.822;2023-03-14T01:14:48;6.43;;;1.38;;
66112;SDS011;52893;52.870;5.822;2023-03-14T01:17:16;11.00;;;2.13;;
66112;SDS011;52893;52.870;5.822;2023-03-14T01:19:44;9.15;;;1.73;;
66112;SDS011;52893;52.870;5.822;2023-03-14T01:22:11;9.52;;;2.17;;
66112;SDS011;52893;52.870;5.822;2023-03-14T01:24:38;7.15;;;1.73;;
66112;SDS011;52893;52.870;5.822;2023-03-14T01:27:06;6.25;;;1.23;;
66112;SDS011;52893;52.870;5.822;2023-03-14T01:29:33;15.85;;;1.40;;
66112;SDS011;52893;52.870;5.822;2023-03-14T01:32:00;6.15;;;0.90;;
66112;SDS011;52893;52.870;5.822;2023-03-14T01:34:28;6.30;;;1.13;;
66112;SDS011;52893;52.870;5.822;2023-03-14T01:36:56;6.97;;;0.95;;
66112;SDS011;52893;52.870;5.822;2023-03-14T01:39:24;5.18;;;1.13;;
66112;SDS011;52893;52.870;5.822;2023-03-14T01:41:52;5.22;;;1.25;;
66112;SDS011;52893;52.870;5.822;2023-03-14T01:44:19;8.95;;;1.27;;
66112;SDS011;52893;52.870;5.822;2023-03-14T01:46:47;3.80;;;1.10;;
66112;SDS011;52893;52.870;5.822;2023-03-14T01:49:20;2.80;;;0.63;;
66112;SDS011;52893;52.870;5.822;2023-03-14T01:51:59;4.00;;;0.82;;
66112;SDS011;52893;52.870;5.822;2023-03-14T01:54:31;3.78;;;1.20;;
66112;SDS011;52893;52.870;5.822;2023-03-14T01:57:03;7.82;;;1.35;;
66112;SDS011;52893;52.870;5.822;2023-03-14T01:59:33;4.97;;;1.27;;
66112;SDS011;52893;52.870;5.822;2023-03-14T02:02:04;5.43;;;0.75;;
66112;SDS011;52893;52.870;5.822;2023-03-14T02:04:34;3.47;;;0.88;;
66112;SDS011;52893;52.870;5.822;2023-03-14T02:07:05;9.52;;;1.55;;
66112;SDS011;52893;52.870;5.822;2023-03-14T02:09:42;3.88;;;1.40;;
66112;SDS011;52893;52.870;5.822;2023-03-14T02:12:15;4.63;;;1.10;;
66112;SDS011;52893;52.870;5.822;2023-03-14T02:14:48;6.47;;;0.90;;
66112;SDS011;52893;52.870;5.822;2023-03-14T02:17:23;8.73;;;1.45;;
66112;SDS011;52893;52.870;5.822;2023-03-14T02:20:07;8.25;;;1.45;;
66112;SDS011;52893;52.870;5.822;2023-03-14T02:22:46;5.68;;;1.10;;
66112;SDS011;52893;52.870;5.822;2023-03-14T02:25:15;5.30;;;1.02;;
66112;SDS011;52893;52.870;5.822;2023-03-14T02:27:49;9.40;;;1.63;;
66112;SDS011;52893;52.870;5.822;2023-03-14T02:30:18;5.75;;;0.93;;
66112;SDS011;52893;52.870;5.822;2023-03-14T02:32:48;4.93;;;1.13;;
66112;SDS011;52893;52.870;5.822;2023-03-14T02:35:21;8.00;;;1.25;;
66112;SDS011;52893;52.870;5.822;2023-03-14T02:37:52;7.22;;;1.33;;
66112;SDS011;52893;52.870;5.822;2023-03-14T02:40:23;3.78;;;1.00;;
66112;SDS011;52893;52.870;5.822;2023-03-14T02:42:54;7.78;;;1.67;;
66112;SDS011;52893;52.870;5.822;2023-03-14T02:48:15;2.75;;;0.88;;
66112;SDS011;52893;52.870;5.822;2023-03-14T02:50:45;5.50;;;1.13;;
66112;SDS011;52893;52.870;5.822;2023-03-14T02:53:16;9.68;;;1.67;;
66112;SDS011;52893;52.870;5.822;2023-03-14T02:55:46;6.22;;;1.38;;
66112;SDS011;52893;52.870;5.822;2023-03-14T02:58:18;11.35;;;0.93;;
66112;SDS011;52893;52.870;5.822;2023-03-14T03:00:50;10.32;;;1.55;;
66112;SDS011;52893;52.870;5.822;2023-03-14T03:03:17;11.98;;;1.70;;
66112;SDS011;52893;52.870;5.822;2023-03-14T03:05:47;5.82;;;0.93;;
66112;SDS011;52893;52.870;5.822;2023-03-14T03:08:16;10.80;;;1.98;;
66112;SDS011;52893;52.870;5.822;2023-03-14T03:10:43;5.00;;;1.10;;
66112;SDS011;52893;52.870;5.822;2023-03-14T03:13:10;8.60;;;1.60;;
66112;SDS011;52893;52.870;5.822;2023-03-14T03:15:40;14.45;;;1.75;;
66112;SDS011;52893;52.870;5.822;2023-03-14T03:18:07;7.97;;;1.65;;
66112;SDS011;52893;52.870;5.822;2023-03-14T03:20:34;9.43;;;1.45;;
66112;SDS011;52893;52.870;5.822;2023-03-14T03:23:02;14.80;;;2.45;;
66112;SDS011;52893;52.870;5.822;2023-03-14T03:25:30;10.85;;;1.80;;
66112;SDS011;52893;52.870;5.822;2023-03-14T03:28:03;25.13;;;2.28;;
66112;SDS011;52893;52.870;5.822;2023-03-14T03:30:36;7.22;;;0.95;;
66112;SDS011;52893;52.870;5.822;2023-03-14T03:33:06;5.70;;;1.45;;
66112;SDS011;52893;52.870;5.822;2023-03-14T03:35:34;11.18;;;2.15;;
66112;SDS011;52893;52.870;5.822;2023-03-14T03:38:03;5.60;;;1.67;;
66112;SDS011;52893;52.870;5.822;2023-03-14T03:40:30;7.22;;;1.42;;
66112;SDS011;52893;52.870;5.822;2023-03-14T03:42:58;9.93;;;1.50;;
66112;SDS011;52893;52.870;5.822;2023-03-14T03:45:26;5.53;;;1.15;;
66112;SDS011;52893;52.870;5.822;2023-03-14T03:47:55;15.70;;;1.80;;
66112;SDS011;52893;52.870;5.822;2023-03-14T03:50:24;11.70;;;1.40;;
66112;SDS011;52893;52.870;5.822;2023-03-14T03:52:51;5.78;;;1.20;;
66112;SDS011;52893;52.870;5.822;2023-03-14T03:55:19;14.60;;;1.63;;
66112;SDS011;52893;52.870;5.822;2023-03-14T03:57:47;5.88;;;1.85;;
66112;SDS011;52893;52.870;5.822;2023-03-14T04:00:14;12.73;;;1.90;;
66112;SDS011;52893;52.870;5.822;2023-03-14T04:02:42;10.60;;;1.70;;
66112;SDS011;52893;52.870;5.822;2023-03-14T04:05:15;11.45;;;2.40;;
66112;SDS011;52893;52.870;5.822;2023-03-14T04:07:51;3.97;;;1.73;;
66112;SDS011;52893;52.870;5.822;2023-03-14T04:10:23;10.05;;;2.03;;
66112;SDS011;52893;52.870;5.822;2023-03-14T04:13:03;8.57;;;2.05;;
66112;SDS011;52893;52.870;5.822;2023-03-14T04:15:32;6.70;;;1.65;;
66112;SDS011;52893;52.870;5.822;2023-03-14T04:18:04;7.72;;;1.73;;
66112;SDS011;52893;52.870;5.822;2023-03-14T04:20:33;8.13;;;1.85;;
66112;SDS011;52893;52.870;5.822;2023-03-14T04:23:03;15.82;;;1.98;;
66112;SDS011;52893;52.870;5.822;2023-03-14T04:25:31;11.20;;;2.45;;
66112;SDS011;52893;52.870;5.822;2023-03-14T04:28:02;8.40;;;2.53;;
66112;SDS011;52893;52.870;5.822;2023-03-14T04:30:31;7.55;;;2.22;;
66112;SDS011;52893;52.870;5.822;2023-03-14T04:33:03;14.60;;;2.75;;
66112;SDS011;52893;52.870;5.822;2023-03-14T04:35:34;10.45;;;1.90;;
66112;SDS011;52893;52.870;5.822;2023-03-14T04:38:08;8.07;;;3.10;;
66112;SDS011;52893;52.870;5.822;2023-03-14T04:40:36;5.28;;;1.42;;
66112;SDS011;52893;52.870;5.822;2023-03-14T04:43:05;7.95;;;2.55;;
66112;SDS011;52893;52.870;5.822;2023-03-14T04:45:35;13.95;;;2.25;;
66112;SDS011;52893;52.870;5.822;2023-03-14T04:48:06;8.55;;;1.98;;
66112;SDS011;52893;52.870;5.822;2023-03-14T04:50:34;7.82;;;1.80;;
66112;SDS011;52893;52.870;5.822;2023-03-14T04:53:02;5.13;;;2.65;;
66112;SDS011;52893;52.870;5.822;2023-03-14T04:55:30;10.40;;;2.15;;
66112;SDS011;52893;52.870;5.822;2023-03-14T04:57:59;6.38;;;2.47;;
66112;SDS011;52893;52.870;5.822;2023-03-14T05:00:26;6.15;;;2.13;;
66112;SDS011;52893;52.870;5.822;2023-03-14T05:03:25;8.57;;;2.90;;
66112;SDS011;52893;52.870;5.822;2023-03-14T05:06:10;8.32;;;2.53;;
66112;SDS011;52893;52.870;5.822;2023-03-14T05:08:48;12.32;;;2.65;;
66112;SDS011;52893;52.870;5.822;2023-03-14T05:11:39;5.70;;;2.67;;
66112;SDS011;52893;52.870;5.822;2023-03-14T05:14:09;10.18;;;2.67;;
66112;SDS011;52893;52.870;5.822;2023-03-14T05:16:42;12.43;;;3.03;;
66112;SDS011;52893;52.870;5.822;2023-03-14T05:19:30;3.60;;;1.90;;
66112;SDS011;52893;52.870;5.822;2023-03-14T05:22:09;12.23;;;3.75;;
66112;SDS011;52893;52.870;5.822;2023-03-14T05:24:54;13.90;;;3.10;;
66112;SDS011;52893;52.870;5.822;2023-03-14T05:27:41;5.38;;;2.20;;
66112;SDS011;52893;52.870;5.822;2023-03-14T05:30:44;5.75;;;2.83;;
66112;SDS011;52893;52.870;5.822;2023-03-14T05:33:43;7.97;;;2.88;;
66112;SDS011;52893;52.870;5.822;2023-03-14T05:36:13;4.53;;;1.90;;
66112;SDS011;52893;52.870;5.822;2023-03-14T05:38:59;4.13;;;2.33;;
66112;SDS011;52893;52.870;5.822;2023-03-14T05:41:26;9.73;;;2.65;;
66112;SDS011;52893;52.870;5.822;2023-03-14T05:44:15;8.50;;;3.30;;
66112;SDS011;52893;52.870;5.822;2023-03-14T05:46:59;9.63;;;2.53;;
66112;SDS011;52893;52.870;5.822;2023-03-14T05:49:38;8.95;;;2.78;;
66112;SDS011;52893;52.870;5.822;2023-03-14T05:52:20;6.57;;;2.58;;
66112;SDS011;52893;52.870;5.822;2023-03-14T05:54:58;5.45;;;2.80;;
66112;SDS011;52893;52.870;5.822;2023-03-14T06:03:05;5.97;;;2.63;;
66112;SDS011;52893;52.870;5.822;2023-03-14T06:05:36;8.60;;;1.92;;
66112;SDS011;52893;52.870;5.822;2023-03-14T06:08:03;13.38;;;3.13;;
66112;SDS011;52893;52.870;5.822;2023-03-14T06:10:32;5.43;;;2.42;;
66112;SDS011;52893;52.870;5.822;2023-03-14T06:13:01;13.35;;;3.08;;
66112;SDS011;52893;52.870;5.822;2023-03-14T06:15:31;8.07;;;1.67;;
66112;SDS011;52893;52.870;5.822;2023-03-14T06:17:59;4.80;;;0.88;;
66112;SDS011;52893;52.870;5.822;2023-03-14T06:20:28;5.47;;;1.10;;
66112;SDS011;52893;52.870;5.822;2023-03-14T06:22:56;1.33;;;0.50;;
66112;SDS011;52893;52.870;5.822;2023-03-14T06:25:23;2.28;;;0.90;;
66112;SDS011;52893;52.870;5.822;2023-03-14T06:27:50;4.60;;;0.80;;
66112;SDS011;52893;52.870;5.822;2023-03-14T06:30:18;5.70;;;0.45;;
66112;SDS011;52893;52.870;5.822;2023-03-14T06:32:46;5.75;;;1.13;;
66112;SDS011;52893;52.870;5.822;2023-03-14T06:35:15;1.92;;;0.40;;
66112;SDS011;52893;52.870;5.822;2023-03-14T06:37:45;1.85;;;0.30;;
66112;SDS011;52893;52.870;5.822;2023-03-14T06:40:13;4.47;;;0.90;;
66112;SDS011;52893;52.870;5.822;2023-03-14T06:43:19;7.82;;;0.55;;
66112;SDS011;52893;52.870;5.822;2023-03-14T06:45:46;5.35;;;1.27;;
66112;SDS011;52893;52.870;5.822;2023-03-14T06:48:13;6.65;;;0.98;;
66112;SDS011;52893;52.870;5.822;2023-03-14T06:50:47;18.55;;;1.70;;
66112;SDS011;52893;52.870;5.822;2023-03-14T06:53:17;6.18;;;1.02;;
66112;SDS011;52893;52.870;5.822;2023-03-14T06:55:45;6.63;;;0.50;;
66112;SDS011;52893;52.870;5.822;2023-03-14T06:58:15;7.82;;;0.68;;
66112;SDS011;52893;52.870;5.822;2023-03-14T07:00:44;9.45;;;0.82;;
66112;SDS011;52893;52.870;5.822;2023-03-14T07:03:18;4.75;;;0.22;;
66112;SDS011;52893;52.870;5.822;2023-03-14T07:05:49;4.10;;;0.60;;
66112;SDS011;52893;52.870;5.822;2023-03-14T07:08:18;1.73;;;0.52;;
66112;SDS011;52893;52.870;5.822;2023-03-14T07:10:45;1.73;;;0.40;;
66112;SDS011;52893;52.870;5.822;2023-03-14T07:13:13;2.33;;;0.40;;
66112;SDS011;52893;52.870;5.822;2023-03-14T07:15:49;3.10;;;0.55;;
66112;SDS011;52893;52.870;5.822;2023-03-14T07:18:16;1.65;;;0.20;;
66112;SDS011;52893;52.870;5.822;2023-03-14T07:20:44;0.77;;;0.15;;
66112;SDS011;52893;52.870;5.822;2023-03-14T07:23:13;2.92;;;0.40;;
66112;SDS011;52893;52.870;5.822;2023-03-14T07:25:48;2.65;;;0.40;;
66112;SDS011;52893;52.870;5.822;2023-03-14T07:28:18;11.68;;;0.95;;
66112;SDS011;52893;52.870;5.822;2023-03-14T07:30:47;2.20;;;0.20;;
66112;SDS011;52893;52.870;5.822;2023-03-14T07:33:20;2.22;;;0.43;;
66112;SDS011;52893;52.870;5.822;2023-03-14T07:35:47;5.70;;;0.85;;
66112;SDS011;52893;52.870;5.822;2023-03-14T07:38:16;3.78;;;0.40;;
66112;SDS011;52893;52.870;5.822;2023-03-14T07:41:07;3.78;;;0.30;;
66112;SDS011;52893;52.870;5.822;2023-03-14T07:43:39;3.38;;;0.57;;
66112;SDS011;52893;52.870;5.822;2023-03-14T07:46:06;4.38;;;0.47;;
66112;SDS011;52893;52.870;5.822;2023-03-14T07:48:34;4.95;;;0.82;;
66112;SDS011;52893;52.870;5.822;2023-03-14T07:51:01;2.13;;;0.20;;
66112;SDS011;52893;52.870;5.822;2023-03-14T07:53:28;10.40;;;0.52;;
66112;SDS011;52893;52.870;5.822;2023-03-14T07:55:56;1.05;;;0.38;;
66112;SDS011;52893;52.870;5.822;2023-03-14T07:58:24;3.10;;;0.47;;
66112;SDS011;52893;52.870;5.822;2023-03-14T08:00:52;11.05;;;0.95;;
66112;SDS011;52893;52.870;5.822;2023-03-14T08:03:19;6.50;;;0.80;;
66112;SDS011;52893;52.870;5.822;2023-03-14T08:05:46;6.53;;;0.95;;
66112;SDS011;52893;52.870;5.822;2023-03-14T08:08:14;7.32;;;1.10;;
66112;SDS011;52893;52.870;5.822;2023-03-14T08:10:41;6.50;;;1.38;;
66112;SDS011;52893;52.870;5.822;2023-03-14T08:13:08;11.27;;;0.98;;
66112;SDS011;52893;52.870;5.822;2023-03-14T08:15:37;2.63;;;0.57;;
66112;SDS011;52893;52.870;5.822;2023-03-14T08:18:05;7.18;;;1.00;;
66112;SDS011;52893;52.870;5.822;2023-03-14T08:20:33;5.32;;;0.70;;
66112;SDS011;52893;52.870;5.822;2023-03-14T08:23:00;9.13;;;0.82;;
66112;SDS011;52893;52.870;5.822;2023-03-14T08:25:28;16.77;;;1.50;;
66112;SDS011;52893;52.870;5.822;2023-03-14T08:27:55;10.70;;;0.82;;
66112;SDS011;52893;52.870;5.822;2023-03-14T08:30:23;15.75;;;1.77;;
66112;SDS011;52893;52.870;5.822;2023-03-14T08:32:52;9.05;;;1.30;;
66112;SDS011;52893;52.870;5.822;2023-03-14T08:35:19;15.48;;;1.67;;
66112;SDS011;52893;52.870;5.822;2023-03-14T08:37:47;9.88;;;1.05;;
66112;SDS011;52893;52.870;5.822;2023-03-14T08:40:14;11.65;;;0.90;;
66112;SDS011;52893;52.870;5.822;2023-03-14T08:42:42;11.88;;;1.27;;
66112;SDS011;52893;52.870;5.822;2023-03-14T08:45:10;8.48;;;1.15;;
66112;SDS011;52893;52.870;5.822;2023-03-14T08:47:39;12.60;;;1.55;;
66112;SDS011;52893;52.870;5.822;2023-03-14T08:50:09;14.43;;;1.85;;
66112;SDS011;52893;52.870;5.822;2023-03-14T08:52:37;8.15;;;0.95;;
66112;SDS011;52893;52.870;5.822;2023-03-14T08:55:06;10.00;;;1.30;;
66112;SDS011;52893;52.870;5.822;2023-03-14T08:57:34;11.68;;;1.55;;
66112;SDS011;52893;52.870;5.822;2023-03-14T09:00:02;15.88;;;1.63;;
66112;SDS011;52893;52.870;5.822;2023-03-14T09:02:36;17.17;;;1.45;;
66112;SDS011;52893;52.870;5.822;2023-03-14T09:05:03;13.38;;;1.23;;
66112;SDS011;52893;52.870;5.822;2023-03-14T09:07:33;15.60;;;2.03;;
66112;SDS011;52893;52.870;5.822;2023-03-14T09:10:00;14.60;;;1.60;;
66112;SDS011;52893;52.870;5.822;2023-03-14T09:12:27;18.58;;;1.80;;
66112;SDS011;52893;52.870;5.822;2023-03-14T09:14:54;18.60;;;2.00;;
66112;SDS011;52893;52.870;5.822;2023-03-14T09:17:23;14.15;;;2.03;;
66112;SDS011;52893;52.870;5.822;2023-03-14T09:19:50;8.98;;;1.48;;
66112;SDS011;52893;52.870;5.822;2023-03-14T09:22:18;15.00;;;1.20;;
66112;SDS011;52893;52.870;5.822;2023-03-14T09:24:47;16.85;;;2.10;;
66112;SDS011;52893;52.870;5.822;2023-03-14T09:27:14;7.70;;;1.38;;
66112;SDS011;52893;52.870;5.822;2023-03-14T09:29:41;14.90;;;1.77;;
66112;SDS011;52893;52.870;5.822;2023-03-14T09:32:09;16.60;;;2.03;;
66112;SDS011;52893;52.870;5.822;2023-03-14T09:34:36;10.48;;;1.08;;
66112;SDS011;52893;52.870;5.822;2023-03-14T09:37:03;17.55;;;1.85;;
66112;SDS011;52893;52.870;5.822;2023-03-14T09:39:31;10.60;;;1.08;;
66112;SDS011;52893;52.870;5.822;2023-03-14T09:42:03;10.82;;;1.27;;
66112;SDS011;52893;52.870;5.822;2023-03-14T09:44:33;11.27;;;1.75;;
66112;SDS011;52893;52.870;5.822;2023-03-14T09:47:05;12.60;;;1.65;;
66112;SDS011;52893;52.870;5.822;2023-03-14T09:49:34;21.20;;;2.03;;
66112;SDS011;52893;52.870;5.822;2023-03-14T09:52:07;8.93;;;1.42;;
66112;SDS011;52893;52.870;5.822;2023-03-14T09:54:42;18.05;;;2.40;;
66112;SDS011;52893;52.870;5.822;2023-03-14T09:57:14;10.85;;;1.50;;
66112;SDS011;52893;52.870;5.822;2023-03-14T09:59:44;18.60;;;2.28;;
66112;SDS011;52893;52.870;5.822;2023-03-14T10:02:14;14.70;;;1.95;;
66112;SDS011;52893;52.870;5.822;2023-03-14T10:04:44;9.52;;;1.27;;
66112;SDS011;52893;52.870;5.822;2023-03-14T10:07:13;19.52;;;1.67;;
66112;SDS011;52893;52.870;5.822;2023-03-14T10:09:43;10.65;;;1.52;;
66112;SDS011;52893;52.870;5.822;2023-03-14T10:12:11;12.38;;;1.48;;
66112;SDS011;52893;52.870;5.822;2023-03-14T10:14:45;17.33;;;2.50;;
66112;SDS011;52893;52.870;5.822;2023-03-14T10:17:15;5.90;;;1.10;;
66112;SDS011;52893;52.870;5.822;2023-03-14T10:19:50;10.02;;;1.20;;
66112;SDS011;52893;52.870;5.822;2023-03-14T10:22:19;18.23;;;1.88;;
66112;SDS011;52893;52.870;5.822;2023-03-14T10:24:50;16.20;;;1.80;;
66112;SDS011;52893;52.870;5.822;2023-03-14T10:27:20;15.43;;;2.08;;
66112;SDS011;52893;52.870;5.822;2023-03-14T10:29:54;5.55;;;1.15;;
66112;SDS011;52893;52.870;5.822;2023-03-14T10:32:27;14.82;;;1.77;;
66112;SDS011;52893;52.870;5.822;2023-03-14T10:35:06;6.10;;;1.02;;
66112;SDS011;52893;52.870;5.822;2023-03-14T10:37:47;4.68;;;1.00;;
66112;SDS011;52893;52.870;5.822;2023-03-14T10:40:18;10.45;;;1.20;;
66112;SDS011;52893;52.870;5.822;2023-03-14T10:42:47;4.78;;;0.93;;
66112;SDS011;52893;52.870;5.822;2023-03-14T10:45:28;4.30;;;1.08;;
66112;SDS011;52893;52.870;5.822;2023-03-14T10:47:59;7.23;;;1.20;;
66112;SDS011;52893;52.870;5.822;2023-03-14T10:50:33;11.93;;;1.13;;
66112;SDS011;52893;52.870;5.822;2023-03-14T10:53:01;9.75;;;1.38;;
66112;SDS011;52893;52.870;5.822;2023-03-14T10:55:39;11.27;;;1.23;;
66112;SDS011;52893;52.870;5.822;2023-03-14T10:58:18;5.25;;;0.73;;
66112;SDS011;52893;52.870;5.822;2023-03-14T11:00:50;6.00;;;0.88;;
66112;SDS011;52893;52.870;5.822;2023-03-14T11:03:24;17.48;;;1.63;;
66112;SDS011;52893;52.870;5.822;2023-03-14T11:05:56;9.95;;;1.05;;
66112;SDS011;52893;52.870;5.822;2023-03-14T11:08:27;6.20;;;0.63;;
66112;SDS011;52893;52.870;5.822;2023-03-14T11:11:04;9.68;;;1.73;;
66112;SDS011;52893;52.870;5.822;2023-03-14T11:13:39;12.60;;;1.20;;
66112;SDS011;52893;52.870;5.822;2023-03-14T11:16:14;10.80;;;1.77;;
66112;SDS011;52893;52.870;5.822;2023-03-14T11:18:57;7.18;;;1.30;;
66112;SDS011;52893;52.870;5.822;2023-03-14T11:21:48;5.68;;;1.50;;
66112;SDS011;52893;52.870;5.822;2023-03-14T11:24:27;6.07;;;0.80;;
66112;SDS011;52893;52.870;5.822;2023-03-14T11:27:16;9.95;;;1.45;;
66112;SDS011;52893;52.870;5.822;2023-03-14T11:29:50;4.25;;;1.00;;
66112;SDS011;52893;52.870;5.822;2023-03-14T11:32:32;2.67;;;0.50;;
66112;SDS011;52893;52.870;5.822;2023-03-14T11:35:09;3.38;;;0.68;;
66112;SDS011;52893;52.870;5.822;2023-03-14T11:37:45;2.50;;;0.73;;
66112;SDS011;52893;52.870;5.822;2023-03-14T11:40:19;6.85;;;0.70;;
66112;SDS011;52893;52.870;5.822;2023-03-14T11:42:50;6.50;;;1.05;;
66112;SDS011;52893;52.870;5.822;2023-03-14T11:45:34;4.38;;;1.00;;
66112;SDS011;52893;52.870;5.822;2023-03-14T11:51:02;4.97;;;1.02;;
66112;SDS011;52893;52.870;5.822;2023-03-14T11:53:38;4.20;;;1.65;;
66112;SDS011;52893;52.870;5.822;2023-03-14T11:56:11;0.75;;;0.57;;
66112;SDS011;52893;52.870;5.822;2023-03-14T11:58:46;4.68;;;0.80;;
66112;SDS011;52893;52.870;5.822;2023-03-14T12:01:18;3.97;;;1.20;;
66112;SDS011;52893;52.870;5.822;2023-03-14T12:03:54;3.72;;;0.82;;
66112;SDS011;52893;52.870;5.822;2023-03-14T12:06:28;4.90;;;0.60;;
66112;SDS011;52893;52.870;5.822;2023-03-14T12:09:00;5.10;;;0.85;;
66112;SDS011;52893;52.870;5.822;2023-03-14T12:11:32;10.15;;;1.10;;
66112;SDS011;52893;52.870;5.822;2023-03-14T12:14:02;4.78;;;1.52;;
66112;SDS011;52893;52.870;5.822;2023-03-14T12:16:32;13.95;;;4.30;;
66112;SDS011;52893;52.870;5.822;2023-03-14T12:22:20;2.63;;;0.63;;
66112;SDS011;52893;52.870;5.822;2023-03-14T12:24:55;5.78;;;1.38;;
66112;SDS011;52893;52.870;5.822;2023-03-14T12:27:42;4.43;;;0.82;;
66112;SDS011;52893;52.870;5.822;2023-03-14T12:30:23;3.95;;;0.70;;
66112;SDS011;52893;52.870;5.822;2023-03-14T12:35:59;3.20;;;0.70;;
66112;SDS011;52893;52.870;5.822;2023-03-14T12:38:29;2.88;;;0.40;;
66112;SDS011;52893;52.870;5.822;2023-03-14T12:41:13;7.50;;;1.25;;
66112;SDS011;52893;52.870;5.822;2023-03-14T12:43:44;1.27;;;0.47;;
66112;SDS011;52893;52.870;5.822;2023-03-14T12:46:15;6.38;;;0.55;;
66112;SDS011;52893;52.870;5.822;2023-03-14T12:48:48;2.35;;;0.75;;
66112;SDS011;52893;52.870;5.822;2023-03-14T12:51:19;4.70;;;0.88;;
66112;SDS011;52893;52.870;5.822;2023-03-14T12:53:56;5.80;;;0.90;;
66112;SDS011;52893;52.870;5.822;2023-03-14T12:56:45;9.10;;;1.13;;
66112;SDS011;52893;52.870;5.822;2023-03-14T12:59:28;6.28;;;0.60;;
66112;SDS011;52893;52.870;5.822;2023-03-14T13:01:59;1.60;;;0.50;;
66112;SDS011;52893;52.870;5.822;2023-03-14T13:04:31;6.65;;;0.30;;
66112;SDS011;52893;52.870;5.822;2023-03-14T13:07:02;3.17;;;0.95;;
66112;SDS011;52893;52.870;5.822;2023-03-14T13:09:49;5.07;;;0.77;;
66112;SDS011;52893;52.870;5.822;2023-03-14T13:12:23;9.55;;;0.77;;
66112;SDS011;52893;52.870;5.822;2023-03-14T13:14:57;3.72;;;1.13;;
66112;SDS011;52893;52.870;5.822;2023-03-14T13:17:26;4.00;;;1.13;;
66112;SDS011;52893;52.870;5.822;2023-03-14T13:19:56;6.20;;;1.10;;
66112;SDS011;52893;52.870;5.822;2023-03-14T13:22:28;6.10;;;1.00;;
66112;SDS011;52893;52.870;5.822;2023-03-14T13:24:59;4.10;;;0.88;;
66112;SDS011;52893;52.870;5.822;2023-03-14T13:27:29;6.53;;;0.70;;
66112;SDS011;52893;52.870;5.822;2023-03-14T13:30:04;5.45;;;0.80;;
66112;SDS011;52893;52.870;5.822;2023-03-14T13:32:40;5.30;;;0.80;;
66112;SDS011;52893;52.870;5.822;2023-03-14T13:35:14;7.50;;;1.02;;
66112;SDS011;52893;52.870;5.822;2023-03-14T13:37:44;5.57;;;0.68;;
66112;SDS011;52893;52.870;5.822;2023-03-14T13:40:25;7.65;;;0.90;;
66112;SDS011;52893;52.870;5.822;2023-03-14T13:43:11;1.83;;;0.32;;
66112;SDS011;52893;52.870;5.822;2023-03-14T13:45:43;4.95;;;0.80;;
66112;SDS011;52893;52.870;5.822;2023-03-14T13:48:18;6.45;;;1.60;;
66112;SDS011;52893;52.870;5.822;2023-03-14T13:50:58;5.85;;;0.88;;
66112;SDS011;52893;52.870;5.822;2023-03-14T13:53:30;2.27;;;0.20;;
66112;SDS011;52893;52.870;5.822;2023-03-14T13:56:00;3.92;;;0.93;;
66112;SDS011;52893;52.870;5.822;2023-03-14T13:58:29;5.80;;;0.95;;
66112;SDS011;52893;52.870;5.822;2023-03-14T14:01:02;2.05;;;0.82;;
66112;SDS011;52893;52.870;5.822;2023-03-14T14:03:32;4.75;;;0.95;;
66112;SDS011;52893;52.870;5.822;2023-03-14T14:06:03;2.10;;;0.75;;
66112;SDS011;52893;52.870;5.822;2023-03-14T14:08:37;6.50;;;1.23;;
66112;SDS011;52893;52.870;5.822;2023-03-14T14:11:07;5.95;;;0.68;;
66112;SDS011;52893;52.870;5.822;2023-03-14T14:13:46;3.88;;;0.90;;
66112;SDS011;52893;52.870;5.822;2023-03-14T14:16:15;2.95;;;0.60;;
66112;SDS011;52893;52.870;5.822;2023-03-14T14:18:45;7.35;;;0.63;;
66112;SDS011;52893;52.870;5.822;2023-03-14T14:21:13;3.97;;;1.00;;
66112;SDS011;52893;52.870;5.822;2023-03-14T14:23:42;5.03;;;0.73;;
66112;SDS011;52893;52.870;5.822;2023-03-14T14:26:13;1.63;;;0.70;;
66112;SDS011;52893;52.870;5.822;2023-03-14T14:28:44;2.92;;;1.00;;
66112;SDS011;52893;52.870;5.822;2023-03-14T14:31:19;4.53;;;0.98;;
66112;SDS011;52893;52.870;5.822;2023-03-14T14:33:53;7.30;;;0.80;;
66112;SDS011;52893;52.870;5.822;2023-03-14T14:36:23;1.27;;;0.60;;
66112;SDS011;52893;52.870;5.822;2023-03-14T14:38:54;14.93;;;1.02;;
66112;SDS011;52893;52.870;5.822;2023-03-14T14:41:32;4.00;;;1.02;;
66112;SDS011;52893;52.870;5.822;2023-03-14T14:44:02;5.10;;;0.85;;
66112;SDS011;52893;52.870;5.822;2023-03-14T14:46:31;4.15;;;1.90;;
66112;SDS011;52893;52.870;5.822;2023-03-14T14:49:03;10.73;;;1.38;;
66112;SDS011;52893;52.870;5.822;2023-03-14T14:51:33;3.53;;;1.00;;
66112;SDS011;52893;52.870;5.822;2023-03-14T14:56:38;4.53;;;1.30;;
66112;SDS011;52893;52.870;5.822;2023-03-14T14:59:17;3.30;;;0.65;;
66112;SDS011;52893;52.870;5.822;2023-03-14T15:01:47;2.67;;;0.47;;
66112;SDS011;52893;52.870;5.822;2023-03-14T15:04:16;3.05;;;0.47;;
66112;SDS011;52893;52.870;5.822;2023-03-14T15:06:44;3.05;;;0.43;;
66112;SDS011;52893;52.870;5.822;2023-03-14T15:09:15;2.90;;;0.73;;
66112;SDS011;52893;52.870;5.822;2023-03-14T15:11:43;2.63;;;0.70;;
66112;SDS011;52893;52.870;5.822;2023-03-14T15:14:10;4.30;;;0.63;;
66112;SDS011;52893;52.870;5.822;2023-03-14T15:16:38;3.00;;;0.43;;
66112;SDS011;52893;52.870;5.822;2023-03-14T15:19:09;2.72;;;0.70;;
66112;SDS011;52893;52.870;5.822;2023-03-14T15:21:39;1.90;;;0.60;;
66112;SDS011;52893;52.870;5.822;2023-03-14T15:24:08;3.83;;;0.50;;
66112;SDS011;52893;52.870;5.822;2023-03-14T15:26:37;4.40;;;0.77;;
66112;SDS011;52893;52.870;5.822;2023-03-14T15:29:05;2.85;;;0.63;;